createdAt,value
2023-04-17T00:00:54.416Z,2.00
2023-04-17T00:04:57.633Z,1.50
2023-04-17T00:09:01.381Z,2.55
2023-04-17T00:13:06.082Z,2.22
2023-04-17T00:17:10.821Z,1.65
2023-04-17T00:21:14.241Z,1.75
2023-04-17T00:25:18.092Z,2.20
2023-04-17T00:29:22.552Z,1.67
2023-04-17T00:33:26.149Z,1.77
2023-04-17T00:37:29.181Z,1.60
2023-04-17T00:41:33.045Z,2.00
2023-04-17T00:45:38.022Z,2.05
2023-04-17T00:49:42.056Z,1.70
2023-04-17T00:53:45.989Z,1.73
2023-04-17T00:57:49.887Z,1.38
2023-04-17T01:01:54.926Z,1.88
2023-04-17T01:05:58.651Z,1.88
2023-04-17T01:10:01.920Z,2.17
2023-04-17T01:14:05.105Z,1.63
2023-04-17T01:18:10.298Z,1.45
2023-04-17T01:22:14.821Z,1.23
2023-04-17T01:26:21.009Z,2.15
2023-04-17T01:30:26.329Z,1.88
2023-04-17T01:34:29.503Z,1.38
2023-04-17T01:38:33.176Z,1.73
2023-04-17T01:42:37.916Z,2.33
2023-04-17T01:46:41.396Z,2.33
2023-04-17T01:50:46.148Z,1.70
2023-04-17T01:54:49.418Z,1.98
2023-04-17T01:58:53.945Z,2.28
2023-04-17T02:02:57.590Z,2.80
2023-04-17T02:07:01.188Z,2.60
2023-04-17T02:11:04.551Z,2.20
2023-04-17T02:15:11.124Z,2.47
2023-04-17T02:19:14.636Z,2.28
2023-04-17T02:23:17.699Z,2.25
2023-04-17T02:27:21.116Z,1.75
2023-04-17T02:31:26.070Z,1.77
2023-04-17T02:35:32.033Z,2.03
2023-04-17T02:39:35.360Z,2.03
2023-04-17T02:43:38.729Z,1.80
2023-04-17T02:47:44.357Z,1.95
2023-04-17T02:51:47.965Z,1.67
2023-04-17T02:55:51.262Z,2.35
2023-04-17T02:59:54.809Z,1.67
2023-04-17T03:04:00.130Z,1.85
2023-04-17T03:08:04.716Z,1.65
2023-04-17T03:12:08.239Z,2.28
2023-04-17T03:16:12.229Z,2.35
2023-04-17T03:20:18.099Z,2.33
2023-04-17T03:24:21.828Z,2.03
2023-04-17T03:28:26.144Z,2.38
2023-04-17T03:32:29.534Z,2.40
2023-04-17T03:36:34.211Z,2.65
2023-04-17T03:40:37.883Z,1.90
2023-04-17T03:44:41.571Z,2.25
2023-04-17T03:48:45.226Z,1.88
2023-04-17T03:52:49.860Z,2.65
2023-04-17T03:56:53.489Z,2.63
2023-04-17T04:00:59.070Z,3.13
2023-04-17T04:05:02.912Z,2.58
2023-04-17T04:09:07.838Z,2.10
2023-04-17T04:13:11.402Z,1.83
2023-04-17T04:17:14.758Z,2.55
2023-04-17T04:21:18.322Z,1.90
2023-04-17T04:25:24.026Z,1.75
2023-04-17T04:29:28.591Z,2.00
2023-04-17T04:33:31.941Z,2.70
2023-04-17T04:37:36.575Z,2.35
2023-04-17T04:41:46.634Z,2.58
2023-04-17T04:45:50.305Z,2.28
2023-04-17T04:49:54.057Z,2.85
2023-04-17T04:53:57.788Z,3.10
2023-04-17T04:58:03.255Z,2.53
2023-04-17T05:02:06.964Z,3.15
2023-04-17T05:06:11.410Z,2.95
2023-04-17T05:10:14.755Z,2.90
2023-04-17T05:14:19.149Z,2.75
2023-04-17T05:18:22.738Z,2.42
2023-04-17T05:22:27.812Z,3.63
2023-04-17T05:26:31.187Z,2.13
2023-04-17T05:30:36.307Z,3.10
2023-04-17T05:34:39.676Z,3.40
2023-04-17T05:38:45.512Z,2.53
2023-04-17T05:42:49.443Z,3.42
2023-04-17T05:46:56.942Z,3.42
2023-04-17T05:51:00.396Z,3.42
2023-04-17T05:55:03.971Z,3.40
2023-04-17T05:59:07.348Z,2.80
2023-04-17T06:03:12.309Z,3.05
2023-04-17T06:07:15.608Z,3.10
2023-04-17T06:11:18.875Z,2.97
2023-04-17T06:15:22.291Z,2.70
2023-04-17T06:19:26.895Z,3.15
2023-04-17T06:23:30.205Z,2.92
2023-04-17T06:27:35.224Z,3.08
2023-04-17T06:31:40.217Z,3.10
2023-04-17T06:35:44.805Z,3.30
2023-04-17T06:39:48.232Z,3.70
2023-04-17T06:43:51.328Z,3.88
2023-04-17T06:47:54.785Z,3.85
2023-04-17T06:51:59.288Z,3.20
2023-04-17T06:56:02.989Z,3.92
2023-04-17T07:00:07.485Z,3.78
2023-04-17T07:04:11.394Z,3.85
2023-04-17T07:08:18.865Z,3.08
2023-04-17T07:12:23.117Z,4.25
2023-04-17T07:16:26.384Z,3.90
2023-04-17T07:20:30.136Z,3.75
2023-04-17T07:24:35.214Z,4.05
2023-04-17T07:28:39.732Z,4.10
2023-04-17T07:32:43.199Z,4.93
2023-04-17T07:36:47.807Z,4.72
2023-04-17T07:40:52.582Z,4.18
2023-04-17T07:44:55.818Z,3.88
2023-04-17T07:48:59.439Z,3.53
2023-04-17T07:53:03.359Z,4.40
2023-04-17T07:57:08.377Z,4.40
2023-04-17T08:01:12.222Z,4.07
2023-04-17T08:05:15.556Z,5.13
2023-04-17T08:09:18.801Z,5.40
2023-04-17T08:13:23.442Z,5.70
2023-04-17T08:17:30.484Z,4.90
2023-04-17T08:21:33.546Z,5.13
2023-04-17T08:25:37.012Z,4.18
2023-04-17T08:29:42.334Z,4.85
2023-04-17T08:33:45.772Z,4.18
2023-04-17T08:37:49.203Z,5.05
2023-04-17T08:42:00.939Z,4.00
2023-04-17T08:46:08.887Z,4.78
2023-04-17T08:50:14.278Z,4.40
2023-04-17T08:54:17.869Z,5.50
2023-04-17T08:58:24.366Z,5.78
2023-04-17T09:02:29.534Z,5.57
2023-04-17T09:06:50.951Z,4.78
2023-04-17T09:10:56.870Z,5.88
2023-04-17T09:15:00.171Z,5.10
2023-04-17T09:19:09.238Z,5.43
2023-04-17T09:23:13.056Z,6.40
2023-04-17T09:27:24.144Z,4.57
2023-04-17T09:31:30.753Z,5.07
2023-04-17T09:35:40.105Z,6.65
2023-04-17T09:39:58.306Z,5.70
2023-04-17T09:44:05.548Z,5.47
2023-04-17T09:48:11.477Z,6.43
2023-04-17T09:52:16.121Z,5.97
2023-04-17T09:56:22.504Z,5.95
2023-04-17T10:00:27.888Z,4.72
2023-04-17T10:04:32.094Z,5.35
2023-04-17T10:08:37.349Z,5.70
2023-04-17T10:12:42.540Z,4.70
2023-04-17T10:16:47.349Z,5.50
2023-04-17T10:20:51.458Z,4.80
2023-04-17T10:25:19.522Z,4.78
2023-04-17T10:29:53.793Z,4.53
2023-04-17T10:33:57.207Z,4.60
2023-04-17T10:38:08.595Z,4.35
2023-04-17T10:42:20.356Z,5.07
2023-04-17T10:46:27.728Z,4.47
2023-04-17T10:50:31.313Z,5.47
2023-04-17T10:54:35.251Z,4.95
2023-04-17T10:58:58.795Z,4.53
2023-04-17T11:03:03.827Z,4.25
2023-04-17T11:07:07.515Z,4.88
2023-04-17T11:11:12.262Z,4.22
2023-04-17T11:15:17.616Z,3.00
2023-04-17T11:19:23.324Z,4.15
2023-04-17T11:23:34.577Z,4.45
2023-04-17T11:27:37.848Z,5.30
2023-04-17T11:31:42.476Z,4.07
2023-04-17T11:35:46.363Z,4.93
2023-04-17T11:39:50.179Z,4.13
2023-04-17T11:43:53.343Z,4.30
2023-04-17T11:47:58.216Z,3.50
2023-04-17T11:52:03.846Z,5.43
2023-04-17T11:56:15.285Z,4.78
2023-04-17T12:00:20.446Z,5.00
2023-04-17T12:04:26.449Z,4.07
2023-04-17T12:08:30.727Z,5.00
2023-04-17T12:12:33.743Z,4.40
2023-04-17T12:16:36.797Z,3.50
2023-04-17T12:20:41.112Z,3.85
2023-04-17T12:24:45.046Z,3.97
2023-04-17T12:28:49.360Z,3.72
2023-04-17T12:32:52.778Z,4.22
2023-04-17T12:36:57.522Z,4.90
2023-04-17T12:41:01.036Z,3.55
2023-04-17T12:45:04.414Z,4.00
2023-04-17T12:49:07.636Z,4.40
2023-04-17T12:53:13.402Z,4.03
2023-04-17T12:57:16.877Z,4.13
2023-04-17T13:01:21.436Z,3.60
2023-04-17T13:05:24.978Z,3.83
2023-04-17T13:09:30.827Z,3.40
2023-04-17T13:13:34.021Z,3.85
2023-04-17T13:17:37.353Z,3.22
2023-04-17T13:21:40.726Z,3.50
2023-04-17T13:25:47.394Z,3.55
2023-04-17T13:29:50.962Z,2.80
2023-04-17T13:33:54.310Z,2.90
2023-04-17T13:38:01.357Z,3.70
2023-04-17T13:42:06.191Z,3.25
2023-04-17T13:46:10.240Z,3.20
2023-04-17T13:50:13.226Z,3.65
2023-04-17T13:54:16.710Z,3.65
2023-04-17T13:58:21.099Z,3.33
2023-04-17T14:02:24.880Z,3.70
2023-04-17T14:06:29.071Z,3.33
2023-04-17T14:10:32.696Z,3.03
2023-04-17T14:14:38.547Z,3.40
2023-04-17T14:18:41.660Z,3.63
2023-04-17T14:22:44.864Z,3.30
2023-04-17T14:26:50.184Z,3.22
2023-04-17T14:30:54.904Z,3.40
2023-04-17T14:34:59.744Z,2.58
2023-04-17T14:39:02.968Z,3.53
2023-04-17T14:43:06.280Z,3.10
2023-04-17T14:47:10.814Z,3.08
2023-04-17T14:51:16.880Z,3.63
2023-04-17T14:55:25.009Z,3.25
2023-04-17T14:59:28.918Z,3.60
2023-04-17T15:03:33.630Z,2.88
2023-04-17T15:07:38.975Z,2.78
2023-04-17T15:11:41.995Z,3.42
2023-04-17T15:15:45.566Z,4.03
2023-04-17T15:19:50.079Z,3.88
2023-04-17T15:23:53.524Z,3.65
2023-04-17T15:27:56.592Z,3.38
2023-04-17T15:32:00.877Z,3.70
2023-04-17T15:36:05.794Z,3.58
2023-04-17T15:40:10.610Z,3.42
2023-04-17T15:44:13.716Z,3.65
2023-04-17T15:48:17.280Z,3.45
2023-04-17T15:52:21.604Z,3.67
2023-04-17T15:56:25.935Z,3.35
2023-04-17T16:00:29.207Z,3.45
2023-04-17T16:04:34.171Z,2.72
2023-04-17T16:08:38.784Z,2.50
2023-04-17T16:12:43.993Z,2.88
2023-04-17T16:16:47.472Z,2.78
2023-04-17T16:20:51.389Z,3.38
2023-04-17T16:24:55.870Z,2.80
2023-04-17T16:29:00.602Z,2.05
2023-04-17T16:33:04.242Z,1.58
2023-04-17T16:37:07.951Z,1.95
2023-04-17T16:41:12.769Z,1.50
2023-04-17T16:45:16.458Z,2.00
2023-04-17T16:49:19.605Z,2.60
2023-04-17T16:53:23.296Z,2.42
2023-04-17T16:57:27.934Z,3.17
2023-04-17T17:01:31.315Z,3.40
2023-04-17T17:05:34.384Z,2.70
2023-04-17T17:09:37.643Z,2.80
2023-04-17T17:13:42.444Z,3.78
2023-04-17T17:17:46.222Z,3.97
2023-04-17T17:21:50.170Z,2.58
2023-04-17T17:25:56.987Z,3.00
2023-04-17T17:30:01.779Z,2.35
2023-04-17T17:34:22.605Z,3.47
2023-04-17T17:38:30.846Z,4.32
2023-04-17T17:42:34.196Z,3.05
2023-04-17T17:46:39.198Z,3.22
2023-04-17T17:50:43.126Z,2.80
2023-04-17T17:54:47.508Z,2.03
2023-04-17T17:58:51.719Z,1.92
2023-04-17T18:02:56.819Z,2.17
2023-04-17T18:07:00.584Z,2.53
2023-04-17T18:11:04.860Z,2.75
2023-04-17T18:15:12.727Z,3.00
2023-04-17T18:19:17.518Z,3.20
2023-04-17T18:23:21.131Z,3.15
2023-04-17T18:27:24.630Z,3.67
2023-04-17T18:31:28.786Z,3.00
2023-04-17T18:35:35.782Z,2.90
2023-04-17T18:39:39.321Z,3.22
2023-04-17T18:43:42.678Z,3.55
2023-04-17T18:47:46.839Z,2.78
2023-04-17T18:51:51.455Z,2.67
2023-04-17T18:55:55.980Z,2.97
2023-04-17T18:59:59.253Z,3.60
2023-04-17T19:04:02.840Z,3.58
2023-04-17T19:08:07.969Z,3.05
2023-04-17T19:12:11.959Z,4.00
2023-04-17T19:16:15.572Z,3.58
2023-04-17T19:20:19.775Z,3.67
2023-04-17T19:24:24.309Z,2.17
2023-04-17T19:28:28.713Z,2.80
2023-04-17T19:32:32.124Z,3.03
2023-04-17T19:36:39.083Z,3.15
2023-04-17T19:40:43.692Z,2.78
2023-04-17T19:44:47.302Z,2.80
2023-04-17T19:48:59.673Z,1.90
2023-04-17T19:53:03.467Z,1.95
2023-04-17T20:12:10.646Z,2.97
2023-04-17T20:16:13.969Z,2.78
2023-04-17T20:20:17.324Z,3.10
2023-04-17T20:24:20.685Z,2.78
2023-04-17T20:28:28.922Z,2.15
2023-04-17T20:32:32.223Z,2.65
2023-04-17T20:36:38.016Z,2.55
2023-04-17T20:40:41.837Z,2.05
2023-04-17T20:44:46.568Z,2.03
2023-04-17T20:48:50.218Z,1.75
2023-04-17T20:52:53.488Z,2.42
2023-04-17T20:56:57.672Z,2.55
2023-04-17T21:01:02.405Z,2.75
2023-04-17T21:05:06.772Z,1.40
2023-04-17T21:09:11.912Z,2.28
2023-04-17T21:13:15.330Z,2.90
2023-04-17T21:17:20.160Z,2.65
2023-04-17T21:21:23.571Z,3.13
2023-04-17T21:25:26.944Z,4.00
2023-04-17T21:29:30.975Z,3.03
2023-04-17T21:33:36.753Z,3.42
2023-04-17T21:37:40.359Z,3.50
2023-04-17T21:41:43.769Z,3.15
2023-04-17T21:45:47.083Z,4.70
2023-04-17T21:49:51.696Z,3.88
2023-04-17T21:53:55.219Z,3.75
2023-04-17T21:57:58.410Z,4.13
2023-04-17T22:02:04.040Z,4.38
2023-04-17T22:06:09.667Z,3.67
2023-04-17T22:10:15.704Z,3.25
2023-04-17T22:14:19.292Z,2.80
2023-04-17T22:18:22.930Z,2.45
2023-04-17T22:22:27.536Z,2.92
2023-04-17T22:26:31.968Z,3.40
2023-04-17T22:30:35.164Z,2.70
2023-04-17T22:34:41.931Z,2.78
2023-04-17T22:38:48.005Z,2.90
2023-04-17T22:42:52.265Z,2.78
2023-04-17T22:46:55.639Z,3.13
2023-04-17T22:51:00.440Z,2.75
2023-04-17T22:55:06.813Z,2.92
2023-04-17T22:59:11.055Z,3.17
2023-04-17T23:03:14.497Z,3.13
2023-04-17T23:07:21.281Z,3.17
2023-04-17T23:11:25.943Z,2.95
2023-04-17T23:15:29.881Z,2.75
2023-04-17T23:19:33.011Z,2.47
2023-04-17T23:23:37.371Z,3.15
2023-04-17T23:27:42.486Z,3.17
2023-04-17T23:31:47.971Z,2.70
2023-04-17T23:35:52.486Z,2.90
2023-04-17T23:39:57.194Z,2.83
2023-04-17T23:44:02.530Z,3.28
2023-04-17T23:48:06.089Z,2.75
2023-04-17T23:52:09.433Z,2.95
2023-04-17T23:56:12.997Z,3.55
